Time;durP1;ratioP1;P1;durP2;ratioP2;P2;SDS_P1;SDS_P2;PMS_P1;PMS_P2;Temp;Humidity;BMP_temperature;BMP_pressure;BME280_temperature;BME280_humidity;BME280_pressure;Samples;Min_cycle;Max_cycle;Signal;HPM_P1;HPM_P2
2023/05/31 00:00:20;;;;;;;6.38;2.97;;;22.60;60.20;;;;;;5027251;28;20025;-54
2023/05/31 00:02:46;;;;;;;6.97;2.83;;;22.50;60.80;;;;;;5043523;28;20040;-53
2023/05/31 00:05:11;;;;;;;5.50;3.17;;;22.50;60.20;;;;;;5026677;28;20045;-53
2023/05/31 00:07:37;;;;;;;7.57;3.15;;;22.50;60.30;;;;;;5040928;28;20359;-54
2023/05/31 00:10:03;;;;;;;4.95;3.13;;;22.40;60.30;;;;;;5046845;28;20446;-54
2023/05/31 00:12:28;;;;;;;5.22;3.13;;;22.40;60.40;;;;;;5027039;28;20116;-54
2023/05/31 00:14:54;;;;;;;4.32;2.97;;;22.40;60.40;;;;;;5028705;28;20129;-54
2023/05/31 00:17:19;;;;;;;5.53;3.10;;;22.40;60.50;;;;;;5029363;28;20074;-54
2023/05/31 00:19:45;;;;;;;5.13;3.05;;;22.40;60.60;;;;;;5061770;28;20035;-54
2023/05/31 00:22:11;;;;;;;5.68;2.97;;;22.30;60.60;;;;;;5040065;28;20032;-54
2023/05/31 00:24:37;;;;;;;5.07;3.05;;;22.30;60.80;;;;;;5041118;28;20034;-54
2023/05/31 00:27:02;;;;;;;4.15;3.05;;;22.40;60.90;;;;;;5026186;28;20402;-54
2023/05/31 00:29:28;;;;;;;6.28;2.90;;;22.30;61.50;;;;;;5025120;28;20037;-53
2023/05/31 00:31:54;;;;;;;4.63;3.20;;;22.30;60.90;;;;;;5008115;28;20060;-54
2023/05/31 00:34:19;;;;;;;4.05;2.70;;;22.30;60.90;;;;;;5045170;28;20029;-54
2023/05/31 00:36:45;;;;;;;4.30;3.17;;;22.20;61.00;;;;;;5027581;28;20037;-54
2023/05/31 00:39:10;;;;;;;8.30;3.00;;;22.20;61.10;;;;;;5045737;28;20351;-54
2023/05/31 00:41:36;;;;;;;8.05;3.13;;;22.20;61.20;;;;;;5045839;28;20472;-54
2023/05/31 00:44:01;;;;;;;6.00;2.92;;;22.10;61.20;;;;;;5044206;28;20044;-54
2023/05/31 00:46:35;;;;;;;4.30;3.20;;;22.10;61.30;;;;;;5030498;28;20036;-54
2023/05/31 00:49:01;;;;;;;3.67;2.95;;;22.00;61.40;;;;;;5040481;28;20034;-54
2023/05/31 00:51:27;;;;;;;5.90;2.75;;;22.10;61.50;;;;;;5024436;28;20147;-54
2023/05/31 00:53:53;;;;;;;6.07;3.45;;;22.00;61.50;;;;;;5040589;28;20125;-54
2023/05/31 00:56:19;;;;;;;3.85;3.03;;;22.00;61.60;;;;;;5040570;28;20101;-54
2023/05/31 00:58:45;;;;;;;7.72;3.08;;;21.90;61.60;;;;;;5040411;28;20470;-54
2023/05/31 01:01:11;;;;;;;7.72;3.17;;;21.90;61.70;;;;;;5040094;28;20053;-54
2023/05/31 01:03:37;;;;;;;6.68;3.05;;;21.90;61.80;;;;;;5022680;28;20033;-54
2023/05/31 01:06:03;;;;;;;6.07;3.17;;;21.90;61.90;;;;;;5023859;28;20041;-54
2023/05/31 01:08:28;;;;;;;4.88;2.90;;;21.80;61.80;;;;;;5040426;28;20030;-53
2023/05/31 01:10:54;;;;;;;8.48;3.42;;;21.80;61.90;;;;;;5040657;28;20538;-54
2023/05/31 01:13:31;;;;;;;6.15;3.40;;;21.80;62.00;;;;;;5023963;28;20089;-54
2023/05/31 01:16:01;;;;;;;4.03;3.20;;;21.80;62.10;;;;;;5023853;28;20038;-54
2023/05/31 01:18:32;;;;;;;4.28;3.03;;;21.80;62.10;;;;;;5023770;28;20034;-54
2023/05/31 01:21:01;;;;;;;5.47;3.25;;;21.70;62.10;;;;;;5040832;28;20108;-54
2023/05/31 01:23:39;;;;;;;6.47;3.30;;;21.70;62.10;;;;;;5043451;28;20057;-54
2023/05/31 01:26:04;;;;;;;4.68;3.33;;;21.80;62.20;;;;;;5027809;28;20034;-54
2023/05/31 01:28:30;;;;;;;4.50;2.80;;;21.70;62.20;;;;;;5040331;28;20219;-54
2023/05/31 01:31:01;;;;;;;7.45;3.15;;;21.60;62.30;;;;;;5042059;28;20099;-54
2023/05/31 01:33:27;;;;;;;5.38;3.35;;;21.60;62.40;;;;;;5031037;28;20038;-52
2023/05/31 01:35:52;;;;;;;3.10;2.80;;;21.60;62.40;;;;;;5024426;28;20470;-53
2023/05/31 01:38:18;;;;;;;6.32;3.05;;;21.60;62.50;;;;;;5055172;28;20509;-54
2023/05/31 01:40:43;;;;;;;4.78;3.55;;;21.50;62.50;;;;;;5023147;28;20057;-54
2023/05/31 01:43:09;;;;;;;4.70;3.45;;;21.50;62.60;;;;;;5024778;28;20030;-54
2023/05/31 01:45:35;;;;;;;4.45;3.58;;;21.50;62.70;;;;;;5043678;28;20029;-54
2023/05/31 01:48:02;;;;;;;4.10;3.67;;;21.50;62.70;;;;;;5034597;28;20048;-54
2023/05/31 01:50:28;;;;;;;7.13;3.40;;;21.50;62.80;;;;;;5024428;28;20037;-54
2023/05/31 01:52:53;;;;;;;6.60;3.65;;;21.50;62.80;;;;;;5037408;28;20041;-54
2023/05/31 01:55:19;;;;;;;3.95;3.55;;;21.50;62.80;;;;;;5022628;28;20050;-54
2023/05/31 01:57:44;;;;;;;5.85;3.85;;;21.40;62.90;;;;;;5022613;28;20441;-54
2023/05/31 02:00:12;;;;;;;4.70;3.50;;;21.50;62.90;;;;;;5023031;28;20394;-54
2023/05/31 02:02:41;;;;;;;4.10;3.42;;;21.40;62.90;;;;;;5043498;28;20045;-54
2023/05/31 02:05:08;;;;;;;5.50;4.10;;;21.40;62.90;;;;;;5030714;28;20183;-54
2023/05/31 02:07:35;;;;;;;11.45;5.00;;;21.40;63.00;;;;;;5042988;28;20103;-54
2023/05/31 02:10:01;;;;;;;10.10;5.88;;;21.40;63.10;;;;;;5040687;28;20029;-53
2023/05/31 02:12:26;;;;;;;6.22;5.60;;;21.30;63.30;;;;;;5037516;28;20489;-54
2023/05/31 02:14:52;;;;;;;7.03;5.38;;;21.30;63.40;;;;;;5046997;28;20078;-54
2023/05/31 02:17:18;;;;;;;6.80;4.93;;;21.30;63.40;;;;;;5029492;28;20034;-54
2023/05/31 02:19:46;;;;;;;7.53;5.20;;;21.30;63.40;;;;;;5040361;28;20478;-53
2023/05/31 02:22:12;;;;;;;5.47;4.90;;;21.30;63.50;;;;;;5031408;28;20097;-54
2023/05/31 02:24:37;;;;;;;7.53;5.03;;;21.30;63.50;;;;;;5042100;28;20104;-54
2023/05/31 02:27:03;;;;;;;5.30;4.53;;;21.30;63.60;;;;;;5031229;28;20521;-53
2023/05/31 02:29:29;;;;;;;6.15;4.60;;;21.20;63.60;;;;;;5042993;28;20093;-54
2023/05/31 02:31:55;;;;;;;6.82;5.22;;;21.20;63.80;;;;;;5046497;28;20032;-54
2023/05/31 02:34:20;;;;;;;5.55;4.65;;;21.30;63.90;;;;;;5037739;28;20040;-53
2023/05/31 02:36:46;;;;;;;7.40;4.70;;;21.20;64.00;;;;;;5027936;28;20057;-53
2023/05/31 02:39:11;;;;;;;7.75;4.90;;;21.20;64.00;;;;;;5059319;28;21482;-54
2023/05/31 02:41:37;;;;;;;5.70;4.43;;;21.20;64.10;;;;;;5043031;28;20030;-54
2023/05/31 02:44:02;;;;;;;7.47;4.70;;;21.20;64.20;;;;;;5027819;28;20144;-54
2023/05/31 02:46:28;;;;;;;6.22;4.32;;;21.10;64.20;;;;;;5042341;28;20063;-54
2023/05/31 02:48:53;;;;;;;6.03;4.40;;;21.10;64.30;;;;;;5041996;28;20090;-54
2023/05/31 02:51:19;;;;;;;4.78;3.88;;;21.10;64.40;;;;;;5027501;28;20026;-54
2023/05/31 02:53:45;;;;;;;4.93;4.40;;;21.10;64.50;;;;;;5025966;28;20044;-54
2023/05/31 02:56:11;;;;;;;5.22;4.32;;;21.10;64.50;;;;;;5058286;28;20043;-53
2023/05/31 02:58:36;;;;;;;6.72;4.55;;;21.00;64.50;;;;;;5045302;28;20093;-54
2023/05/31 03:01:02;;;;;;;6.75;4.30;;;21.00;64.60;;;;;;5046716;28;20022;-54
2023/05/31 03:03:28;;;;;;;5.55;4.60;;;21.00;64.60;;;;;;5035122;28;20028;-54
2023/05/31 03:05:54;;;;;;;5.30;4.45;;;21.00;64.70;;;;;;5040012;28;20034;-54
2023/05/31 03:08:20;;;;;;;7.18;5.10;;;21.00;64.70;;;;;;5029171;28;20049;-54
2023/05/31 03:10:45;;;;;;;6.78;4.75;;;21.00;64.70;;;;;;5032732;28;20030;-54
2023/05/31 03:13:11;;;;;;;7.80;4.55;;;21.00;64.80;;;;;;5033496;28;20053;-54
2023/05/31 03:15:36;;;;;;;8.18;4.80;;;20.90;64.80;;;;;;5058046;28;20067;-54
2023/05/31 03:18:02;;;;;;;5.82;4.65;;;20.90;64.80;;;;;;5033269;28;20125;-54
2023/05/31 03:20:32;;;;;;;5.82;4.75;;;20.90;64.80;;;;;;5042368;28;20030;-53
2023/05/31 03:22:58;;;;;;;5.70;4.82;;;20.90;64.80;;;;;;5034468;28;20022;-53
2023/05/31 03:25:24;;;;;;;5.35;4.75;;;20.90;64.80;;;;;;5043028;28;20034;-54
2023/05/31 03:27:50;;;;;;;9.27;5.50;;;20.80;64.90;;;;;;5029845;28;20025;-54
2023/05/31 03:30:16;;;;;;;11.32;5.85;;;20.90;64.90;;;;;;5024420;28;20026;-54
2023/05/31 03:32:41;;;;;;;69.97;12.55;;;20.80;64.90;;;;;;5037607;28;20103;-54
2023/05/31 03:35:07;;;;;;;29.33;8.63;;;20.80;65.00;;;;;;5029099;28;20036;-54
2023/05/31 03:37:33;;;;;;;21.15;7.03;;;20.80;65.00;;;;;;5045131;28;20029;-54
2023/05/31 03:39:59;;;;;;;25.60;7.47;;;20.70;65.00;;;;;;5024836;28;20101;-54
2023/05/31 03:42:24;;;;;;;33.65;8.80;;;20.80;65.10;;;;;;5042435;28;20030;-54
2023/05/31 03:44:50;;;;;;;25.45;7.90;;;20.70;65.10;;;;;;5039556;28;20025;-54
2023/05/31 03:47:16;;;;;;;33.75;9.05;;;20.70;65.10;;;;;;5025272;28;20494;-54
2023/05/31 03:49:41;;;;;;;35.80;8.43;;;20.70;65.10;;;;;;5024636;28;20034;-54
2023/05/31 03:52:12;;;;;;;42.40;8.30;;;20.60;65.20;;;;;;5034587;28;20088;-54
2023/05/31 03:54:38;;;;;;;29.48;8.00;;;20.70;65.30;;;;;;5041021;28;20045;-54
2023/05/31 03:57:04;;;;;;;20.60;7.50;;;20.70;65.40;;;;;;5041092;28;20033;-54
2023/05/31 03:59:29;;;;;;;27.67;8.30;;;20.70;65.50;;;;;;5033602;28;20033;-53
2023/05/31 04:01:55;;;;;;;37.30;7.72;;;20.60;65.40;;;;;;5045354;28;20040;-54
2023/05/31 04:04:21;;;;;;;22.15;6.68;;;20.60;65.40;;;;;;5044095;28;20030;-54
2023/05/31 04:06:46;;;;;;;32.42;8.48;;;20.60;66.20;;;;;;5044461;28;20038;-54
2023/05/31 04:09:12;;;;;;;28.10;7.82;;;20.60;65.60;;;;;;5026185;28;20041;-53
2023/05/31 04:11:38;;;;;;;22.40;7.03;;;20.50;65.50;;;;;;5044421;28;20025;-53
2023/05/31 04:14:03;;;;;;;24.80;7.00;;;20.50;65.60;;;;;;5046144;28;20029;-54
2023/05/31 04:16:29;;;;;;;20.73;6.60;;;20.50;65.60;;;;;;5038259;28;20474;-54
2023/05/31 04:18:54;;;;;;;17.48;6.57;;;20.50;65.60;;;;;;5035237;28;20426;-54
2023/05/31 04:21:20;;;;;;;21.95;7.03;;;20.50;65.70;;;;;;5031095;28;20036;-54
2023/05/31 04:23:46;;;;;;;21.80;6.32;;;20.40;65.80;;;;;;5025958;28;20046;-53
2023/05/31 04:26:16;;;;;;;14.48;6.40;;;20.40;66.50;;;;;;5048545;28;20044;-54
2023/05/31 04:28:42;;;;;;;27.85;6.28;;;20.40;65.90;;;;;;5044922;28;20029;-53
2023/05/31 04:31:08;;;;;;;24.65;6.80;;;20.40;65.90;;;;;;5042783;28;20034;-54
2023/05/31 04:33:35;;;;;;;19.45;6.15;;;20.40;65.90;;;;;;5026989;28;20030;-54
2023/05/31 04:36:03;;;;;;;18.58;6.53;;;20.40;66.00;;;;;;5030632;28;20128;-54
2023/05/31 04:38:30;;;;;;;21.60;6.35;;;20.40;66.10;;;;;;5044056;28;20025;-54
2023/05/31 04:40:57;;;;;;;13.85;5.53;;;20.40;66.20;;;;;;5024194;28;20096;-54
2023/05/31 04:43:25;;;;;;;12.05;6.43;;;20.40;66.30;;;;;;5035625;28;20031;-54
2023/05/31 04:45:51;;;;;;;19.08;6.00;;;20.40;66.60;;;;;;5027184;28;20033;-54
2023/05/31 04:48:17;;;;;;;14.07;5.03;;;20.30;66.70;;;;;;5034410;28;20030;-54
2023/05/31 04:50:43;;;;;;;19.88;5.63;;;20.40;66.70;;;;;;5037505;28;20037;-54
2023/05/31 04:53:10;;;;;;;16.05;5.85;;;20.30;66.60;;;;;;5044489;28;20028;-54
2023/05/31 04:55:35;;;;;;;13.63;4.90;;;20.30;66.60;;;;;;5025731;28;20030;-53
2023/05/31 04:58:01;;;;;;;11.52;5.25;;;20.30;66.60;;;;;;5024986;28;20121;-54
2023/05/31 05:00:26;;;;;;;12.20;4.97;;;20.30;66.60;;;;;;5040731;28;20109;-53
2023/05/31 05:02:52;;;;;;;17.13;6.30;;;20.30;66.60;;;;;;5043953;28;20022;-53
2023/05/31 05:05:18;;;;;;;12.90;5.53;;;20.30;66.60;;;;;;5023239;28;20056;-53
2023/05/31 05:07:44;;;;;;;10.85;5.53;;;20.30;66.70;;;;;;5039065;28;20398;-53
2023/05/31 05:10:09;;;;;;;11.15;4.97;;;20.30;66.70;;;;;;5028543;28;20089;-54
2023/05/31 05:12:35;;;;;;;15.45;5.30;;;20.30;66.80;;;;;;5040639;28;20040;-53
2023/05/31 05:15:01;;;;;;;17.40;5.22;;;20.20;66.70;;;;;;5023197;28;20110;-54
2023/05/31 05:17:27;;;;;;;10.15;4.63;;;20.30;66.70;;;;;;5031008;28;20045;-56
2023/05/31 05:19:52;;;;;;;14.88;4.85;;;20.20;66.60;;;;;;5031855;28;20026;-56
2023/05/31 05:22:18;;;;;;;12.13;5.28;;;20.20;66.70;;;;;;5040177;28;20033;-57
2023/05/31 05:24:43;;;;;;;14.60;5.22;;;20.20;66.70;;;;;;5025015;28;20029;-56
2023/05/31 05:27:09;;;;;;;10.57;5.05;;;20.20;66.70;;;;;;5040463;28;20039;-56
2023/05/31 05:29:34;;;;;;;12.90;4.43;;;20.20;66.90;;;;;;5024538;28;20033;-56
2023/05/31 05:32:00;;;;;;;10.48;4.25;;;20.10;67.10;;;;;;5040630;28;20140;-54
2023/05/31 05:34:25;;;;;;;7.50;4.18;;;20.10;67.30;;;;;;5039740;28;20026;-54
2023/05/31 05:36:54;;;;;;;9.13;4.32;;;20.00;67.60;;;;;;5024788;28;20113;-54
2023/05/31 05:39:19;;;;;;;6.55;3.90;;;20.00;67.90;;;;;;5042639;28;20022;-52
2023/05/31 05:41:45;;;;;;;4.13;3.45;;;19.90;68.20;;;;;;5040299;28;20044;-53
2023/05/31 05:44:10;;;;;;;8.10;3.80;;;19.80;68.30;;;;;;5044609;28;20029;-53
2023/05/31 05:46:36;;;;;;;6.47;3.88;;;19.70;68.50;;;;;;5044639;28;20489;-53
2023/05/31 05:49:02;;;;;;;5.55;3.58;;;19.70;68.70;;;;;;5029303;28;20050;-53
2023/05/31 05:51:27;;;;;;;7.57;3.33;;;19.60;68.90;;;;;;5041156;28;20053;-54
2023/05/31 05:53:53;;;;;;;10.13;3.38;;;19.50;69.10;;;;;;5028736;28;20022;-53
2023/05/31 05:56:18;;;;;;;5.40;3.80;;;19.50;69.30;;;;;;5030377;28;20090;-53
2023/05/31 05:58:46;;;;;;;8.75;4.20;;;19.50;69.40;;;;;;5047801;28;20045;-53
2023/05/31 06:01:20;;;;;;;8.20;3.65;;;19.40;69.50;;;;;;5052887;28;20061;-53
2023/05/31 06:03:49;;;;;;;4.55;3.30;;;19.40;69.50;;;;;;5030703;28;20048;-53
2023/05/31 06:06:16;;;;;;;10.02;4.05;;;19.40;69.70;;;;;;5045922;28;20025;-53
2023/05/31 06:08:42;;;;;;;15.63;3.70;;;19.30;69.90;;;;;;5036323;28;20021;-53
2023/05/31 06:11:08;;;;;;;7.25;3.88;;;19.30;70.00;;;;;;5041710;28;20026;-53
2023/05/31 06:13:33;;;;;;;8.00;4.00;;;19.30;70.20;;;;;;5031736;28;20056;-53
2023/05/31 06:15:59;;;;;;;6.00;3.47;;;19.20;70.20;;;;;;5045191;28;20030;-53
2023/05/31 06:18:25;;;;;;;4.93;3.50;;;19.20;70.40;;;;;;5064405;28;20021;-54
2023/05/31 06:20:50;;;;;;;6.72;3.65;;;19.20;70.50;;;;;;5046103;28;20056;-54
2023/05/31 06:23:16;;;;;;;8.57;3.90;;;19.10;70.60;;;;;;5043104;28;20096;-53
2023/05/31 06:25:41;;;;;;;7.60;4.03;;;19.10;70.80;;;;;;5034214;28;20054;-54
2023/05/31 06:28:07;;;;;;;8.90;4.07;;;19.10;70.90;;;;;;5046388;28;20398;-54
2023/05/31 06:30:32;;;;;;;12.32;4.53;;;19.10;71.00;;;;;;5044631;28;20029;-53
2023/05/31 06:32:58;;;;;;;9.98;3.88;;;19.10;71.00;;;;;;5039570;28;20040;-53
2023/05/31 06:35:23;;;;;;;9.52;4.03;;;19.10;71.00;;;;;;5036848;28;20114;-53
2023/05/31 06:37:52;;;;;;;8.98;3.53;;;19.10;71.00;;;;;;5039644;28;20093;-53
2023/05/31 06:40:18;;;;;;;17.45;4.60;;;19.10;71.00;;;;;;5039817;28;20116;-53
2023/05/31 06:42:43;;;;;;;24.60;4.30;;;19.10;71.00;;;;;;5037661;28;20041;-54
2023/05/31 06:45:09;;;;;;;17.27;5.10;;;19.10;71.00;;;;;;5018845;28;20034;-53
2023/05/31 06:47:35;;;;;;;16.10;5.07;;;19.10;71.00;;;;;;5038225;28;20025;-53
2023/05/31 06:50:02;;;;;;;19.42;4.80;;;19.10;71.00;;;;;;5039760;28;20022;-53
2023/05/31 06:52:27;;;;;;;22.95;5.20;;;19.10;70.90;;;;;;5035052;28;20559;-53
2023/05/31 06:54:53;;;;;;;26.30;5.85;;;19.10;70.90;;;;;;5040303;28;20109;-53
2023/05/31 06:57:18;;;;;;;20.70;5.32;;;19.10;70.90;;;;;;5024017;28;20022;-53
2023/05/31 06:59:44;;;;;;;24.20;5.10;;;19.20;70.90;;;;;;5028594;28;20446;-54
2023/05/31 07:02:09;;;;;;;12.75;4.47;;;19.10;70.70;;;;;;5043998;28;20100;-53
2023/05/31 07:04:35;;;;;;;12.98;4.22;;;19.10;70.80;;;;;;5046956;28;20032;-54
2023/05/31 07:07:02;;;;;;;19.08;4.93;;;19.10;70.90;;;;;;5047330;28;20091;-53
2023/05/31 07:09:27;;;;;;;23.75;5.65;;;19.10;71.00;;;;;;5039597;28;20022;-53
2023/05/31 07:11:53;;;;;;;11.10;4.25;;;19.10;71.00;;;;;;5034996;28;20030;-53
2023/05/31 07:14:18;;;;;;;23.65;4.70;;;19.10;71.20;;;;;;5037349;28;20033;-53
2023/05/31 07:16:44;;;;;;;15.70;4.40;;;19.10;71.20;;;;;;5005822;28;20033;-53
2023/05/31 07:19:09;;;;;;;17.88;4.80;;;19.10;71.40;;;;;;5026180;28;20401;-53
2023/05/31 07:21:36;;;;;;;16.42;5.20;;;19.10;71.40;;;;;;5045327;28;20061;-54
2023/05/31 07:24:01;;;;;;;8.85;4.32;;;19.00;71.20;;;;;;5045774;28;20072;-54
2023/05/31 07:26:27;;;;;;;17.52;4.25;;;19.00;71.40;;;;;;5047072;28;20096;-53
2023/05/31 07:28:52;;;;;;;12.65;4.53;;;19.00;71.40;;;;;;5042096;28;20450;-54
2023/05/31 07:31:18;;;;;;;9.85;4.00;;;19.00;71.50;;;;;;5037800;28;20039;-53
2023/05/31 07:33:44;;;;;;;13.65;4.25;;;19.00;71.40;;;;;;5034076;28;20386;-53
2023/05/31 07:36:09;;;;;;;8.63;4.22;;;18.90;71.40;;;;;;5047990;28;20104;-55
2023/05/31 07:38:35;;;;;;;6.95;3.90;;;18.90;71.30;;;;;;5048003;28;20100;-56
2023/05/31 07:41:01;;;;;;;11.18;4.20;;;19.00;71.60;;;;;;5043017;28;20034;-56
2023/05/31 07:43:29;;;;;;;7.80;3.80;;;18.90;71.50;;;;;;5036118;28;20049;-55
2023/05/31 07:45:55;;;;;;;13.85;4.45;;;18.90;71.60;;;;;;5041723;28;20498;-55
2023/05/31 07:48:20;;;;;;;7.97;3.70;;;19.00;71.60;;;;;;5044763;28;20054;-55
2023/05/31 07:50:46;;;;;;;5.85;3.63;;;19.00;71.50;;;;;;5033402;28;20029;-56
2023/05/31 07:53:12;;;;;;;8.02;3.58;;;19.00;71.60;;;;;;5044647;28;20033;-56
2023/05/31 07:55:38;;;;;;;9.45;3.45;;;19.00;71.50;;;;;;5038902;28;20034;-56
2023/05/31 07:58:03;;;;;;;9.70;3.90;;;18.90;71.60;;;;;;5045181;28;20022;-56
2023/05/31 08:00:29;;;;;;;11.57;4.05;;;19.00;71.70;;;;;;5031136;28;20084;-56
2023/05/31 08:02:54;;;;;;;5.38;3.42;;;19.00;71.60;;;;;;5041169;28;20033;-56
2023/05/31 08:05:20;;;;;;;6.63;3.85;;;19.00;71.60;;;;;;5044037;28;20386;-56
2023/05/31 08:07:47;;;;;;;9.57;4.03;;;19.00;71.60;;;;;;5044376;28;20456;-56
2023/05/31 08:10:12;;;;;;;9.20;3.50;;;19.00;71.60;;;;;;5040275;28;20379;-56
2023/05/31 08:12:38;;;;;;;9.82;3.45;;;19.00;71.50;;;;;;5034351;28;20037;-55
2023/05/31 08:15:04;;;;;;;10.38;4.03;;;19.10;71.70;;;;;;5053078;28;20037;-56
2023/05/31 08:17:30;;;;;;;10.73;4.03;;;19.10;71.60;;;;;;5040404;28;20026;-55
2023/05/31 08:19:55;;;;;;;8.38;4.00;;;19.10;71.50;;;;;;5042001;28;20022;-57
2023/05/31 08:22:21;;;;;;;13.02;4.25;;;19.10;71.30;;;;;;5039765;28;20038;-56
2023/05/31 08:24:46;;;;;;;10.70;4.10;;;19.20;71.30;;;;;;5025849;28;20117;-56
2023/05/31 08:27:12;;;;;;;30.35;4.78;;;19.20;71.30;;;;;;5042056;28;20049;-56
2023/05/31 08:29:38;;;;;;;7.80;3.83;;;19.20;71.20;;;;;;5046443;28;20033;-56
2023/05/31 08:32:04;;;;;;;9.18;3.78;;;19.20;71.10;;;;;;5043908;28;20025;-56
2023/05/31 08:34:29;;;;;;;7.18;3.95;;;19.20;71.00;;;;;;5030052;28;20044;-56
2023/05/31 08:36:55;;;;;;;10.60;4.07;;;19.20;71.20;;;;;;5042494;28;20045;-56
2023/05/31 08:39:20;;;;;;;8.93;4.00;;;19.30;71.20;;;;;;5034142;28;20029;-56
2023/05/31 08:41:46;;;;;;;8.63;3.95;;;19.30;71.30;;;;;;5045788;28;20221;-56
2023/05/31 08:44:13;;;;;;;12.13;4.35;;;19.30;71.30;;;;;;5036263;28;20556;-53
2023/05/31 08:46:39;;;;;;;11.38;3.92;;;19.30;71.40;;;;;;5035517;28;20074;-54
2023/05/31 08:49:11;;;;;;;10.02;3.88;;;19.30;71.40;;;;;;5021273;28;20512;-55
2023/05/31 08:51:37;;;;;;;12.88;4.63;;;19.30;71.40;;;;;;5030602;28;20033;-56
2023/05/31 08:54:02;;;;;;;12.75;4.22;;;19.30;71.30;;;;;;5037884;28;20036;-56
2023/05/31 08:56:28;;;;;;;11.13;4.47;;;19.40;71.30;;;;;;5045061;28;20051;-56
2023/05/31 08:58:53;;;;;;;12.10;4.30;;;19.40;71.20;;;;;;5039282;28;20078;-55
2023/05/31 09:01:19;;;;;;;16.80;4.95;;;19.40;71.20;;;;;;5037343;28;20470;-56
2023/05/31 09:03:45;;;;;;;12.63;3.92;;;19.40;71.20;;;;;;5040194;28;20022;-55
2023/05/31 09:06:11;;;;;;;17.63;4.15;;;19.50;71.10;;;;;;5061247;28;20032;-55
2023/05/31 09:08:37;;;;;;;29.05;6.00;;;19.50;70.90;;;;;;5034123;28;20089;-56
2023/05/31 09:11:03;;;;;;;15.23;4.63;;;19.60;70.90;;;;;;5036262;28;20039;-59
2023/05/31 09:13:28;;;;;;;22.52;4.72;;;19.50;70.80;;;;;;5043571;28;20027;-59
2023/05/31 09:15:54;;;;;;;11.02;4.10;;;19.50;70.70;;;;;;5042484;28;20079;-59
2023/05/31 09:18:20;;;;;;;9.48;4.10;;;19.60;71.00;;;;;;5025149;28;20032;-59
2023/05/31 09:20:49;;;;;;;11.68;4.05;;;19.60;71.00;;;;;;5048220;28;20033;-60
2023/05/31 09:23:16;;;;;;;17.63;4.70;;;19.60;70.90;;;;;;5020716;28;20474;-58
2023/05/31 09:25:52;;;;;;;12.93;4.40;;;19.60;70.80;;;;;;5041388;28;20040;-60
2023/05/31 09:28:18;;;;;;;11.05;4.22;;;19.70;70.80;;;;;;5037237;28;20038;-60
2023/05/31 09:30:44;;;;;;;33.67;5.75;;;19.70;70.70;;;;;;5020097;28;20447;-59
2023/05/31 09:33:10;;;;;;;23.83;5.13;;;19.70;70.50;;;;;;5024233;28;20045;-59
2023/05/31 09:35:36;;;;;;;14.68;4.43;;;19.80;70.50;;;;;;5033775;28;20059;-60
2023/05/31 09:38:07;;;;;;;10.05;4.38;;;19.80;70.40;;;;;;5029080;28;20694;-59
2023/05/31 09:40:33;;;;;;;14.45;4.70;;;19.80;70.40;;;;;;5029853;28;20095;-59
2023/05/31 09:42:59;;;;;;;10.20;4.78;;;19.90;70.50;;;;;;5024467;28;20466;-59
2023/05/31 09:45:25;;;;;;;15.27;4.88;;;19.90;70.60;;;;;;5023398;28;20068;-59
2023/05/31 09:47:50;;;;;;;12.80;4.43;;;20.00;70.40;;;;;;5030663;28;20045;-59
2023/05/31 09:50:16;;;;;;;23.85;4.88;;;20.00;70.10;;;;;;5028931;28;20029;-59
2023/05/31 09:52:46;;;;;;;13.65;5.03;;;20.00;70.30;;;;;;5023970;28;20157;-59
2023/05/31 09:55:13;;;;;;;25.95;6.25;;;20.00;70.20;;;;;;5031004;28;20035;-59
2023/05/31 09:57:43;;;;;;;15.88;4.70;;;20.10;70.40;;;;;;5021730;28;20032;-59
2023/05/31 10:00:15;;;;;;;40.17;7.88;;;20.10;70.40;;;;;;5048010;28;20041;-60
2023/05/31 10:02:47;;;;;;;108.70;14.43;;;20.10;70.30;;;;;;5026782;28;20056;-60
2023/05/31 10:05:13;;;;;;;44.22;7.63;;;20.20;70.50;;;;;;5035928;28;20033;-60
2023/05/31 10:07:40;;;;;;;43.25;7.20;;;20.20;70.40;;;;;;5019162;28;20136;-59
2023/05/31 10:10:06;;;;;;;30.80;6.78;;;20.30;70.40;;;;;;5037897;28;20032;-59
2023/05/31 10:12:33;;;;;;;27.23;6.75;;;20.30;70.40;;;;;;5043170;28;20095;-59
2023/05/31 10:15:02;;;;;;;37.83;7.00;;;20.40;70.30;;;;;;5036483;28;20033;-60
2023/05/31 10:17:29;;;;;;;40.28;7.28;;;20.40;70.40;;;;;;5035792;28;20053;-59
2023/05/31 10:19:58;;;;;;;38.45;6.53;;;20.50;70.40;;;;;;5026782;28;20033;-59
2023/05/31 10:22:24;;;;;;;22.05;6.32;;;20.50;70.30;;;;;;5028579;28;20093;-59
2023/05/31 10:25:03;;;;;;;15.40;6.10;;;20.60;70.00;;;;;;5017777;28;20033;-59
2023/05/31 10:27:31;;;;;;;19.70;5.38;;;20.60;70.00;;;;;;5032514;28;20026;-59
2023/05/31 10:30:04;;;;;;;16.67;4.97;;;20.70;69.80;;;;;;5038729;28;20025;-59
2023/05/31 10:32:29;;;;;;;14.20;5.05;;;20.70;69.60;;;;;;5039505;28;20057;-59
2023/05/31 10:34:55;;;;;;;24.30;5.80;;;20.80;69.60;;;;;;5032878;28;20030;-60
2023/05/31 10:37:21;;;;;;;22.85;5.68;;;20.80;69.40;;;;;;5056108;28;20025;-60
2023/05/31 10:39:56;;;;;;;22.35;5.82;;;20.90;69.40;;;;;;5036352;28;20029;-59
2023/05/31 10:42:47;;;;;;;21.38;5.85;;;21.00;69.30;;;;;;5035447;28;20018;-59
2023/05/31 10:45:36;;;;;;;27.50;5.10;;;21.10;69.20;;;;;;5033595;28;20048;-59
2023/05/31 10:48:15;;;;;;;26.70;5.60;;;21.20;69.20;;;;;;5031125;28;20037;-59
2023/05/31 10:50:56;;;;;;;21.15;6.20;;;21.20;68.70;;;;;;5036006;28;20036;-59
2023/05/31 10:53:22;;;;;;;24.50;5.53;;;21.40;68.60;;;;;;5034401;28;20045;-59
2023/05/31 10:55:47;;;;;;;12.00;4.28;;;21.50;68.20;;;;;;5032475;28;20034;-59
2023/05/31 10:58:27;;;;;;;19.17;5.40;;;21.50;67.60;;;;;;5029179;28;20033;-60
2023/05/31 11:00:54;;;;;;;25.08;5.72;;;21.60;67.60;;;;;;5040278;28;20036;-59
2023/05/31 11:03:29;;;;;;;18.17;4.80;;;21.70;67.30;;;;;;5036807;28;20040;-59
2023/05/31 11:06:01;;;;;;;29.20;5.45;;;21.80;67.10;;;;;;5017756;28;20029;-60
2023/05/31 11:08:27;;;;;;;20.25;4.90;;;21.90;66.70;;;;;;5035687;28;20345;-60
2023/05/31 11:10:59;;;;;;;34.50;6.53;;;21.90;66.60;;;;;;5036602;28;20482;-59
2023/05/31 11:13:26;;;;;;;24.15;6.15;;;22.00;66.60;;;;;;5045474;28;20033;-60
2023/05/31 11:15:52;;;;;;;38.20;7.15;;;22.10;66.30;;;;;;5034018;28;20037;-59
2023/05/31 11:18:25;;;;;;;24.83;5.70;;;22.20;66.20;;;;;;5042362;28;20025;-59
2023/05/31 11:20:51;;;;;;;24.10;5.50;;;22.30;66.00;;;;;;5030077;28;20144;-59
2023/05/31 11:23:16;;;;;;;20.33;5.47;;;22.40;65.60;;;;;;5035826;28;20584;-59
2023/05/31 11:25:42;;;;;;;14.52;4.88;;;22.50;65.40;;;;;;5035043;28;20033;-59
2023/05/31 11:28:08;;;;;;;15.02;4.72;;;22.60;65.00;;;;;;5033972;28;20549;-60
2023/05/31 11:30:37;;;;;;;16.55;4.53;;;22.70;64.70;;;;;;5028615;28;20049;-59
2023/05/31 11:33:03;;;;;;;23.20;4.80;;;22.80;64.50;;;;;;5032189;28;20038;-59
2023/05/31 11:35:31;;;;;;;20.40;5.03;;;22.90;64.40;;;;;;5047327;28;20059;-60
2023/05/31 11:38:01;;;;;;;11.93;4.95;;;23.00;64.30;;;;;;5031742;28;20053;-59
2023/05/31 11:40:27;;;;;;;10.88;4.28;;;23.10;63.80;;;;;;5036367;28;20079;-60
2023/05/31 11:42:52;;;;;;;15.63;4.22;;;23.20;63.40;;;;;;5054575;28;20025;-60
2023/05/31 11:45:18;;;;;;;23.63;5.13;;;23.20;63.20;;;;;;5025054;28;20119;-59
2023/05/31 11:47:53;;;;;;;25.65;5.03;;;23.30;63.20;;;;;;5039676;28;20026;-59
2023/05/31 11:50:18;;;;;;;24.73;5.47;;;23.40;62.90;;;;;;5029648;28;20041;-60
2023/05/31 11:52:44;;;;;;;21.65;4.93;;;23.50;62.80;;;;;;5030807;28;20034;-60
2023/05/31 11:55:10;;;;;;;37.90;5.68;;;23.50;62.40;;;;;;5039448;28;20026;-58
2023/05/31 11:57:44;;;;;;;18.50;5.93;;;23.60;62.40;;;;;;5038069;28;20120;-58
2023/05/31 12:00:13;;;;;;;38.47;6.50;;;23.70;62.20;;;;;;5042915;28;20041;-57
2023/05/31 12:02:43;;;;;;;36.10;7.22;;;23.80;62.00;;;;;;5031687;28;20068;-57
2023/05/31 12:05:18;;;;;;;31.23;7.03;;;23.90;61.80;;;;;;5031913;28;20025;-58
2023/05/31 12:07:44;;;;;;;42.00;6.47;;;23.90;61.80;;;;;;5022686;28;20277;-57
2023/05/31 12:10:09;;;;;;;26.10;5.22;;;24.00;61.40;;;;;;5045412;28;20034;-57
2023/05/31 12:12:35;;;;;;;32.42;6.60;;;24.10;61.20;;;;;;5040784;28;20085;-58
2023/05/31 12:15:01;;;;;;;27.45;5.60;;;24.10;61.00;;;;;;5036931;28;20029;-57
2023/05/31 12:17:32;;;;;;;18.52;5.07;;;24.20;60.70;;;;;;5046108;28;20063;-57
2023/05/31 12:19:59;;;;;;;31.35;6.53;;;24.30;61.10;;;;;;5034548;28;20022;-58
2023/05/31 12:22:25;;;;;;;26.75;5.35;;;24.30;60.10;;;;;;5051402;28;20037;-57
2023/05/31 12:24:52;;;;;;;26.88;5.57;;;24.40;60.00;;;;;;5026558;28;20076;-57
2023/05/31 12:27:19;;;;;;;20.33;5.60;;;24.40;59.80;;;;;;5033220;28;20033;-57
2023/05/31 12:29:44;;;;;;;24.08;5.00;;;24.50;60.20;;;;;;5022933;28;20033;-58
2023/05/31 12:32:10;;;;;;;35.78;5.38;;;24.60;59.60;;;;;;5032603;28;20132;-58
2023/05/31 12:34:37;;;;;;;21.58;5.40;;;24.60;59.30;;;;;;5030889;28;20030;-56
2023/05/31 12:37:06;;;;;;;18.33;4.38;;;24.60;59.00;;;;;;5044721;28;20135;-57